Welcome to the New NWS' Forecast!
Most changes are behind the scenes, but click here for differences you might notice.

Terminal Aerodrome Forecast (TAF)

Issued by National Weather Service (NWS)

                            
080 
FTUS42 KMFL 160902 AAA
TAFMIA
TAF AMD
KMIA 160902Z 1609/1712 10007KT P6SM FEW025 SCT250
     FM161500 12011KT P6SM SCT035 BKN050
     FM170000 10009KT P6SM FEW025 SCT250=